Home > Products > Valid Products > TAF

000
FTUS43 KLOT 030300 AAA
TAFMDW
TAF AMD
KMDW 030300Z 0303/0324 04005KT P6SM FEW060
     FM030800 33004KT P6SM SKC
     FM031400 28008KT P6SM FEW080
     FM032000 25012G18KT P6SM BKN070=



000
FTUS43 KLOT 030300 AAA
TAFRFD
TAF AMD
KRFD 030300Z 0303/0324 VRB03KT P6SM FEW060
     FM031500 27010KT P6SM SCT080
     FM032000 26011G18KT P6SM BKN070=



000
FTUS43 KLOT 030300 AAA
TAFORD
TAF AMD
KORD 030300Z 0303/0406 VRB04KT P6SM SKC
     FM031400 28008KT P6SM FEW080
     FM032000 25011G17KT P6SM BKN070
     FM040300 23011KT 6SM -SHRA SCT040 OVC070=



000
FTUS43 KLOT 030300 AAA
TAFDPA
TAF AMD
KDPA 030300Z 0303/0324 VRB03KT P6SM SKC
     FM031400 28008KT P6SM FEW080
     FM032000 25011G17KT P6SM BKN070=



000
FTUS43 KLOT 030300 AAA
TAFGYY
TAF AMD
KGYY 030300Z 0303/0324 36004KT P6SM BKN060
     FM030800 VRB04KT P6SM SCT060
     FM031500 27010KT P6SM FEW070
     FM032000 25011G17KT P6SM BKN070=



000
FTUS43 KLOT 022346
TAFGYY
TAF
KGYY 022346Z 0300/0324 02009KT P6SM BKN040
     FM030300 VRB04KT P6SM SCT040
     FM031500 27010KT P6SM SCT070
     FM032000 25011G17KT P6SM BKN070=



000
FTUS43 KLOT 022346
TAFMDW
TAF
KMDW 022346Z 0300/0324 04009KT P6SM SCT050
     FM030200 VRB03KT P6SM FEW060
     FM031400 28008KT P6SM SCT080
     FM032000 25012G18KT P6SM BKN070=



000
FTUS43 KLOT 022346
TAFRFD
TAF
KRFD 022346Z 0300/0324 05011KT P6SM BKN070
     FM030300 VRB03KT P6SM FEW060
     FM031500 27010KT P6SM SCT080
     FM032000 26011G18KT P6SM BKN070=



000
FTUS43 KLOT 022346
TAFDPA
TAF
KDPA 022346Z 0300/0324 05009KT P6SM SCT050
     FM030200 VRB03KT P6SM FEW060
     FM031400 28008KT P6SM SCT080
     FM032000 25011G17KT P6SM BKN070=



000
FTUS43 KLOT 022346
TAFORD
TAF
KORD 022346Z 0300/0406 05009KT P6SM SCT050
     FM030200 VRB03KT P6SM FEW060
     FM031400 28008KT P6SM SCT080
     FM032000 25011G17KT P6SM BKN070
     FM040300 23011KT 6SM -SHRA SCT040 OVC070=



000
FTUS43 KLOT 022346
TAFMDW
TAF
KMDW 022346Z 0300/0324 04009KT P6SM SCT050
     FM030200 VRB03KT P6SM FEW060
     FM031400 28008KT P6SM SCT080
     FM032000 25012G18KT P6SM BKN070=



000
FTUS43 KLOT 022346
TAFDPA
TAF
KDPA 022346Z 0300/0324 05009KT P6SM SCT050
     FM030200 VRB03KT P6SM FEW060
     FM031400 28008KT P6SM SCT080
     FM032000 25011G17KT P6SM BKN070=



000
FTUS43 KLOT 022346
TAFORD
TAF
KORD 022346Z 0300/0406 05009KT P6SM SCT050
     FM030200 VRB03KT P6SM FEW060
     FM031400 28008KT P6SM SCT080
     FM032000 25011G17KT P6SM BKN070
     FM040300 23011KT 6SM -SHRA SCT040 OVC070=



000
FTUS43 KLOT 022346
TAFRFD
TAF
KRFD 022346Z 0300/0324 05011KT P6SM BKN070
     FM030300 VRB03KT P6SM FEW060
     FM031500 27010KT P6SM SCT080
     FM032000 26011G18KT P6SM BKN070=



000
FTUS43 KLOT 022346
TAFGYY
TAF
KGYY 022346Z 0300/0324 02009KT P6SM BKN040
     FM030300 VRB04KT P6SM SCT040
     FM031500 27010KT P6SM SCT070
     FM032000 25011G17KT P6SM BKN070=



000
FTUS43 KLOT 022111 AAA
TAFORD
TAF AMD
KORD 022111Z 0221/0324 04012KT P6SM SCT040 BKN050
     FM030300 36005KT P6SM FEW060
     FM030500 33004KT P6SM SKC
     FM031500 27010KT P6SM SCT060
     FM032300 25012KT P6SM SCT060 BKN180=



000
FTUS43 KLOT 022111 AAA
TAFRFD
TAF AMD
KRFD 022111Z 0221/0318 05011KT P6SM BKN060
     FM030300 36005KT P6SM SCT060
     FM030500 33004KT P6SM SKC
     FM031500 27010KT P6SM FEW060=



000
FTUS43 KLOT 022111 AAA
TAFDPA
TAF AMD
KDPA 022111Z 0221/0318 04012G18KT P6SM FEW035 SCT060
     FM030300 36005KT P6SM FEW060
     FM030500 33004KT P6SM SKC
     FM031500 27010KT P6SM FEW060=



000
FTUS43 KLOT 022111 AAA
TAFMDW
TAF AMD
KMDW 022111Z 0221/0318 04013KT P6SM SCT040 BKN050
     FM030300 36005KT P6SM FEW060
     FM030500 33004KT P6SM SKC
     FM031500 27010KT P6SM FEW060=



000
FTUS43 KLOT 022111 AAA
TAFGYY
TAF AMD
KGYY 022111Z 0221/0318 02012KT P6SM BKN040
     FM030300 36005KT P6SM SCT040
     FM030500 33004KT P6SM SKC
     FM031500 27010KT P6SM FEW060=



000
FTUS43 KLOT 021737
TAFMDW
TAF
KMDW 021737Z 0218/0318 03012G18KT P6SM FEW035 SCT060
     FM030300 36005KT P6SM FEW060
     FM030500 33004KT P6SM SKC
     FM031500 27010KT P6SM FEW060=



000
FTUS43 KLOT 021737
TAFDPA
TAF
KDPA 021737Z 0218/0318 04012G18KT P6SM FEW035 SCT060
     FM030300 36005KT P6SM FEW060
     FM030500 33004KT P6SM SKC
     FM031500 27010KT P6SM FEW060=



000
FTUS43 KLOT 021737
TAFRFD
TAF
KRFD 021737Z 0218/0318 05011G18KT P6SM FEW035 SCT060
     FM030300 36005KT P6SM FEW060
     FM030500 33004KT P6SM SKC
     FM031500 27010KT P6SM FEW060=



000
FTUS43 KLOT 021737
TAFGYY
TAF
KGYY 021737Z 0218/0318 02012KT P6SM FEW035 SCT060
     FM030300 36005KT P6SM FEW060
     FM030500 33004KT P6SM SKC
     FM031500 27010KT P6SM FEW060=



000
FTUS43 KLOT 021737
TAFORD
TAF
KORD 021737Z 0218/0324 04012G18KT P6SM FEW035 SCT060
     FM030300 36005KT P6SM FEW060
     FM030500 33004KT P6SM SKC
     FM031500 27010KT P6SM FEW060
     FM032300 25012KT P6SM SCT060 BKN180=



000
FTUS43 KLOT 021737
TAFORD
TAF
KORD 021737Z 0218/0324 04012G18KT P6SM FEW035 SCT060
     FM030300 36005KT P6SM FEW060
     FM030500 33004KT P6SM SKC
     FM031500 27010KT P6SM FEW060
     FM032300 25012KT P6SM SCT060 BKN180=



000
FTUS43 KLOT 021737
TAFRFD
TAF
KRFD 021737Z 0218/0318 05011G18KT P6SM FEW035 SCT060
     FM030300 36005KT P6SM FEW060
     FM030500 33004KT P6SM SKC
     FM031500 27010KT P6SM FEW060=



000
FTUS43 KLOT 021737
TAFMDW
TAF
KMDW 021737Z 0218/0318 03012G18KT P6SM FEW035 SCT060
     FM030300 36005KT P6SM FEW060
     FM030500 33004KT P6SM SKC
     FM031500 27010KT P6SM FEW060=



000
FTUS43 KLOT 021737
TAFDPA
TAF
KDPA 021737Z 0218/0318 04012G18KT P6SM FEW035 SCT060
     FM030300 36005KT P6SM FEW060
     FM030500 33004KT P6SM SKC
     FM031500 27010KT P6SM FEW060=



000
FTUS43 KLOT 021737
TAFGYY
TAF
KGYY 021737Z 0218/0318 02012KT P6SM FEW035 SCT060
     FM030300 36005KT P6SM FEW060
     FM030500 33004KT P6SM SKC
     FM031500 27010KT P6SM FEW060=



000
FTUS43 KLOT 021456 AAA
TAFORD
TAF AMD
KORD 021456Z 0215/0318 05012KT P6SM FEW035 SCT060
      TEMPO 0220/0223 BKN030
     FM030100 33005KT P6SM SCT050 BKN120
     FM031400 27010KT P6SM SCT050 BKN180=



000
FTUS43 KLOT 021456 AAA
TAFGYY
TAF AMD
KGYY 021456Z 0215/0312 05012KT P6SM FEW035 SCT060
      TEMPO 0220/0223 BKN030
     FM030300 33006KT P6SM BKN035=



000
FTUS43 KLOT 021456 AAA
TAFDPA
TAF AMD
KDPA 021456Z 0215/0312 05012KT P6SM FEW035 SCT060
      TEMPO 0220/0223 BKN030
     FM030100 33005KT P6SM SCT050 BKN120=



000
FTUS43 KLOT 021456 AAA
TAFRFD
TAF AMD
KRFD 021456Z 0215/0312 04012KT P6SM FEW035 SCT060
      TEMPO 0220/0223 BKN030
     FM030100 VRB05KT P6SM SCT050 BKN120=



000
FTUS43 KLOT 021456 AAA
TAFMDW
TAF AMD
KMDW 021456Z 0215/0312 05012KT P6SM FEW035 SCT060
      TEMPO 0220/0223 BKN030
     FM030100 33005KT P6SM SCT050 BKN120=



000
FTUS43 KLOT 021120
TAFDPA
TAF
KDPA 021120Z 0212/0312 04012KT P6SM SCT025 BKN035 BKN060
     FM030100 33005KT P6SM SCT050 BKN120=



000
FTUS43 KLOT 021120
TAFMDW
TAF
KMDW 021120Z 0212/0312 04012KT P6SM SCT025 BKN035 BKN060
     FM030100 33005KT P6SM SCT050 BKN120=



000
FTUS43 KLOT 021120
TAFGYY
TAF
KGYY 021120Z 0212/0312 02012KT P6SM BKN012 OVC020
     FM021700 02012KT P6SM SCT025 BKN035 BKN060
     FM030300 33006KT P6SM BKN035=



000
FTUS43 KLOT 021120
TAFORD
TAF
KORD 021120Z 0212/0318 04012KT P6SM SCT025 BKN035 BKN060
     FM030100 33005KT P6SM SCT050 BKN120
     FM031400 27010KT P6SM SCT050 BKN180=



000
FTUS43 KLOT 021120
TAFRFD
TAF
KRFD 021120Z 0212/0312 02007KT P6SM SCT009 BKN060
      TEMPO 0212/0214 BKN009
     FM021500 06012KT P6SM BKN040
     FM030100 VRB05KT P6SM SCT050 BKN120=



000
FTUS43 KLOT 020909 AAB
TAFDPA
TAF AMD
KDPA 020909Z 0209/0306 03010KT P6SM SCT012 OVC025
     FM021200 04012KT P6SM SCT025 BKN040
     FM030100 33005KT P6SM SCT050 BKN120=



000
FTUS43 KLOT 020909 AAB
TAFRFD
TAF AMD
KRFD 020909Z 0209/0306 03007KT P6SM OVC060
     FM021500 04012KT P6SM BKN040
     FM021700 07013KT P6SM BKN050
     FM030100 VRB05KT P6SM SCT050 BKN120=



000
FTUS43 KLOT 020909 AAB
TAFORD
TAF AMD
KORD 020909Z 0209/0312 02011KT P6SM SCT012 OVC025
     FM021100 04012KT P6SM SCT025 BKN040
     FM030100 33005KT P6SM SCT050 BKN120=



000
FTUS43 KLOT 020909 AAB
TAFMDW
TAF AMD
KMDW 020909Z 0209/0306 02012KT P6SM SCT012 BKN035
     FM021700 05012KT P6SM BKN035
     FM030100 33005KT P6SM SCT050 BKN120=



000
FTUS43 KLOT 020909 AAC
TAFGYY
TAF AMD
KGYY 020909Z 0209/0306 02012KT P6SM BKN012 OVC020
     FM021700 02012KT P6SM BKN025
     FM030300 35006KT P6SM BKN035=



000
FTUS43 KLOT 020703 AAB
TAFGYY
TAF AMD
KGYY 020703Z 0207/0306 02012KT P6SM SCT012 OVC020
     FM021700 01012KT P6SM BKN025
     FM030300 35006KT P6SM BKN035=



000
FTUS43 KLOT 020702 AAA
TAFDPA
TAF AMD
KDPA 020702Z 0207/0306 03010KT P6SM BKN012 OVC018
     FM021300 04012KT P6SM SCT020 BKN050
     FM030100 33005KT P6SM SCT050 BKN120=



000
FTUS43 KLOT 020702 AAA
TAFMDW
TAF AMD
KMDW 020702Z 0207/0306 03011KT P6SM SCT012 OVC018
     FM021300 04012KT P6SM SCT020 BKN050
     FM030100 33005KT P6SM SCT050 BKN120=



000
FTUS43 KLOT 020702 AAA
TAFORD
TAF AMD
KORD 020702Z 0207/0312 04011KT P6SM BKN012 OVC018
     FM021300 04012KT P6SM SCT020 BKN050
     FM030100 33005KT P6SM SCT050 BKN120=



000
FTUS43 KLOT 020702 AAA
TAFGYY
TAF AMD
KGYY 020702Z 0207/0306 03012KT P6SM OVC003
     FM021100 02012KT P6SM BKN012 OVC018
     FM021700 01012KT P6SM BKN025
     FM030300 35006KT P6SM BKN035=



000
FTUS43 KLOT 020702 AAA
TAFRFD
TAF AMD
KRFD 020702Z 0207/0306 04008KT P6SM SCT012 OVC050
     FM021500 04012KT P6SM BKN035
     FM030100 VRB05KT P6SM SCT050 BKN120=



000
FTUS43 KLOT 020529
TAFORD
TAF
KORD 020529Z 0206/0312 03011KT P6SM OVC009
     FM020800 02008KT P6SM BKN012 OVC018
     FM021300 04012KT P6SM SCT020 BKN050
     FM030100 33005KT P6SM SCT050 BKN120=



000
FTUS43 KLOT 020529
TAFGYY
TAF
KGYY 020529Z 0206/0306 03012KT 5SM BR OVC003
     FM021200 02012KT P6SM BKN012 OVC018
     FM021700 01012KT P6SM BKN025
     FM030300 35006KT P6SM BKN035=



000
FTUS43 KLOT 020529
TAFDPA
TAF
KDPA 020529Z 0206/0306 03011KT P6SM OVC008
     FM020800 02008KT P6SM BKN012 OVC018
     FM021300 04012KT P6SM SCT020 BKN050
     FM030100 33005KT P6SM SCT050 BKN120=



000
FTUS43 KLOT 020529
TAFMDW
TAF
KMDW 020529Z 0206/0306 03011KT P6SM OVC009
     FM020800 02008KT P6SM BKN012 OVC018
     FM021300 04012KT P6SM SCT020 BKN050
     FM030100 33005KT P6SM SCT050 BKN120=



000
FTUS43 KLOT 020529
TAFRFD
TAF
KRFD 020529Z 0206/0306 02010KT P6SM VCSH OVC009
     FM020800 02007KT P6SM BKN012 OVC018
     FM021300 04012KT P6SM BKN035
     FM030100 VRB05KT P6SM SCT050 BKN120=



000
FTUS43 KLOT 020318 AAB
TAFRFD
TAF AMD
KRFD 020318Z 0203/0224 02006KT P6SM -RA BKN020 OVC040
     FM020500 02007KT P6SM SCT025 OVC060
     FM021400 04010KT P6SM BKN060=



000
FTUS43 KLOT 020315 AAD
TAFGYY
TAF AMD
KGYY 020315Z 0203/0224 36008KT 5SM RA BR OVC006
     FM020600 02009KT P6SM OVC008
     FM021000 03011KT P6SM OVC012
     FM021300 04011KT P6SM SCT020 BKN040
     FM021700 04012KT P6SM BKN035 BKN050=



000
FTUS43 KLOT 020314 AAC
TAFGYY
TAF AMD
KGYY 020314Z 0203/0224 36008KT 5SM RA BR OVC006
     FM020600 02009KT P6SM OVC008
     FM021000 03011KT P6SM OVC012
     FM021300 04011KT P6SM SCT020 BKN040
     FM021700 04012KT P6SM BKN035 BKN050=



000
FTUS43 KLOT 020314 AAB
TAFGYY
TAF AMD
KGYY 020314Z 0203/0224 36008KT 6SM RA BR OVC006
     FM020600 02009KT P6SM OVC008
     FM021000 03011KT P6SM OVC012
     FM021300 04011KT P6SM SCT020 BKN040
     FM021700 04012KT P6SM BKN035 BKN050=



000
FTUS43 KLOT 020314 AAB
TAFMDW
TAF AMD
KMDW 020314Z 0203/0224 02012KT 6SM -RA BR OVC006
     FM020600 01011KT P6SM OVC008
     FM020900 01010KT P6SM OVC012
     FM021200 03011KT P6SM SCT035 BKN050=



000
FTUS43 KLOT 020314 AAA
TAFRFD
TAF AMD
KRFD 020314Z 0203/0224 01007KT 5SM -RA BR OVC015
     FM020500 02006KT P6SM BKN020 OVC040
     FM020800 02007KT P6SM SCT025 OVC040
     FM021400 04010KT P6SM BKN060=



000
FTUS43 KLOT 020314 AAB
TAFORD
TAF AMD
KORD 020314Z 0203/0306 01012KT 6SM -RA BR OVC006
     FM020600 01011KT P6SM OVC008
     FM020800 01010KT P6SM OVC012
     FM021100 03011KT P6SM SCT035 BKN050
     FM030000 03007KT P6SM SCT050 BKN100=



000
FTUS43 KLOT 020314 AAB
TAFDPA
TAF AMD
KDPA 020314Z 0203/0224 03010KT 6SM -RA BR OVC007
     FM020600 01011KT P6SM OVC009
     FM020800 01010KT P6SM OVC012
     FM021100 03011KT P6SM SCT035 BKN050=



000
FTUS43 KLOT 020023 AAA
TAFGYY
TAF AMD
KGYY 020023Z 0200/0224 02008KT 5SM -SHRA BR OVC005
      TEMPO 0201/0203 3SM TSRA BR OVC004CB
     FM020500 03011KT 5SM BR OVC003
     FM021200 02009KT P6SM OVC007
     FM021700 02010KT P6SM OVC012=



000
FTUS43 KLOT 020021 AAA
TAFDPA
TAF AMD
KDPA 020021Z 0200/0224 03014KT 6SM -SHRA BR OVC010
     FM020100 03012KT 5SM -SHRA OVC009
      TEMPO 0201/0202 3SM TSRA OVC006CB
     FM020330 03011KT 5SM BR OVC004
     FM020800 02009KT P6SM OVC008
     FM021200 03011KT P6SM OVC012
     FM021500 04011KT P6SM OVC025
     FM021800 04012KT P6SM BKN035 OVC050=



000
FTUS43 KLOT 020019 AAA
TAFMDW
TAF AMD
KMDW 020019Z 0200/0224 03014KT P6SM -SHRA OVC009
     FM020100 03012KT 5SM -SHRA VCTS OVC009CB
      TEMPO 0201/0202 4SM TSRA OVC008CB
     FM020200 02012KT 6SM -SHRA OVC007
     FM020400 03011KT 5SM BR OVC004
     FM020800 02009KT P6SM OVC008
     FM021200 03011KT P6SM OVC012
     FM021500 04011KT P6SM OVC025
     FM021800 04012KT P6SM BKN035 OVC050=



000
FTUS43 KLOT 020019 AAA
TAFMDW
TAF AMD
KMDW 020019Z 0200/0224 03014KT P6SM -SHRA OVC009
     FM020100 03012KT 5SM -SHRA VCTS OVC009CB
      TEMPO 0201/0202 4SM TSRA OVC008CB
     FM020200 02012KT 6SM -SHRA OVC007
     FM020400 03011KT 5SM BR OVC004
     FM020800 02009KT P6SM OVC008
     FM021200 03011KT P6SM OVC012
     FM021500 04011KT P6SM OVC025
     FM021800 04012KT P6SM BKN035 OVC050=



000
FTUS43 KLOT 020015 AAA
TAFORD
TAF AMD
KORD 020015Z 0200/0306 03014KT 6SM -SHRA BR OVC009
      TEMPO 0201/0202 4SM TSRA OVC008CB
     FM020230 03012KT 4SM SHRA OVC006
     FM020330 03011KT 5SM BR OVC004
     FM020800 02009KT P6SM OVC008
     FM021200 03011KT P6SM OVC012
     FM021500 04011KT P6SM OVC025
     FM021800 04012KT P6SM BKN035 OVC050
     FM030000 04007KT P6SM BKN050=



000
FTUS43 KLOT 020015 AAA
TAFORD
TAF AMD
KORD 020015Z 0200/0306 03014KT 6SM -SHRA BR OVC009
      TEMPO 0201/0202 4SM TSRA OVC008CB
     FM020230 03012KT 4SM SHRA OVC006
     FM020330 03011KT 5SM BR OVC004
     FM020800 02009KT P6SM OVC008
     FM021200 03011KT P6SM OVC012
     FM021500 04011KT P6SM OVC025
     FM021800 04012KT P6SM BKN035 OVC050
     FM030000 04007KT P6SM BKN050=



000
FTUS43 KLOT 012335
TAFRFD
TAF
KRFD 012335Z 0200/0224 04012G18KT 5SM -SHRA OVC015
      TEMPO 0200/0203 3SM RA BR OVC008
     FM020400 03012KT 5SM BR OVC006
     FM020900 02006KT 6SM BR OVC012
     FM021200 04010KT P6SM SCT012 OVC040=



000
FTUS43 KLOT 012335
TAFORD
TAF
KORD 012335Z 0200/0306 03014KT 6SM -SHRA BR OVC009
     FM020130 03012KT 4SM SHRA VCTS OVC006CB
     FM020330 03011KT 5SM BR OVC004
     FM020800 02009KT P6SM OVC008
     FM021200 03011KT P6SM OVC012
     FM021500 04011KT P6SM OVC025
     FM021800 04012KT P6SM BKN035 OVC050
     FM030000 04007KT P6SM BKN050=



000
FTUS43 KLOT 012335
TAFGYY
TAF
KGYY 012335Z 0200/0224 03010KT 4SM -SHRA BR OVC007
      TEMPO 0201/0204 3SM RA BR OVC005
     FM020500 03011KT 5SM BR OVC003
     FM021200 02009KT P6SM OVC007
     FM021700 02010KT P6SM OVC012=



000
FTUS43 KLOT 012335
TAFDPA
TAF
KDPA 012335Z 0200/0224 03014KT 5SM -SHRA BR OVC009
     FM020100 03012KT 4SM -SHRA VCTS OVC006CB
     FM020330 03011KT 5SM BR OVC004
     FM020800 02009KT P6SM OVC008
     FM021200 03011KT P6SM OVC012
     FM021500 04011KT P6SM OVC025
     FM021800 04012KT P6SM BKN035 OVC050=



000
FTUS43 KLOT 012335
TAFMDW
TAF
KMDW 012335Z 0200/0224 03014KT 5SM -SHRA BR OVC009
     FM020100 03012KT 4SM -SHRA VCTS OVC006CB
     FM020400 03011KT 5SM BR OVC004
     FM020800 02009KT P6SM OVC008
     FM021200 03011KT P6SM OVC012
     FM021500 04011KT P6SM OVC025
     FM021800 04012KT P6SM BKN035 OVC050=



000
FTUS43 KLOT 012109 AAA
TAFGYY
TAF AMD
KGYY 012109Z 0121/0218 03011KT 5SM BR OVC011
     FM012200 03011G16KT 4SM -SHRA BR OVC010
      TEMPO 0123/0203 3SM RA BR OVC005
     FM020500 03011KT 5SM BR OVC003
     FM021200 02009KT P6SM OVC007
     FM021500 02009KT P6SM FEW005 SCT012=



000
FTUS43 KLOT 012109 AAC
TAFMDW
TAF AMD
KMDW 012109Z 0121/0218 04011KT P6SM OVC010
     FM012300 03012G16KT 5SM -SHRA BR OVC010
      TEMPO 0200/0203 3SM RA BR OVC006
     FM020500 03011KT 5SM BR OVC003
     FM021100 02009KT P6SM OVC007
     FM021500 02009KT P6SM FEW005 SCT012=



000
FTUS43 KLOT 012109 AAA
TAFRFD
TAF AMD
KRFD 012109Z 0121/0218 05013KT P6SM VCSH OVC018
     FM012200 04012G18KT 5SM -SHRA OVC015
      TEMPO 0123/0203 3SM RA BR OVC008
     FM020400 03012KT 5SM BR OVC006
     FM020900 02006KT 6SM BR OVC012
     FM021500 03010KT P6SM FEW005 SCT012=



000
FTUS43 KLOT 012109 AAB
TAFDPA
TAF AMD
KDPA 012109Z 0121/0218 05012KT P6SM OVC010
     FM012300 03012G16KT 4SM -SHRA BR OVC010
      TEMPO 0200/0203 3SM RA BR OVC006
     FM020500 03011KT 5SM BR OVC004
     FM021100 02009KT P6SM OVC007
     FM021500 02009KT P6SM FEW005 SCT012=



000
FTUS43 KLOT 012109 AAB
TAFORD
TAF AMD
KORD 012109Z 0121/0224 05011KT P6SM OVC008
     FM012200 03012G16KT 5SM -SHRA BR OVC010
      TEMPO 0200/0203 3SM RA BR OVC006
     FM020300 03011KT 5SM BR OVC003
     FM021100 02009KT P6SM OVC007
     FM021500 02011KT P6SM FEW005 SCT012=



000
FTUS43 KLOT 011949 AAA
TAFDPA
TAF AMD
KDPA 011949Z 0120/0218 05012KT P6SM OVC010
     FM012300 03012G16KT 4SM -SHRA BR OVC010
      TEMPO 0200/0203 3SM RA BR OVC006
     FM020500 03011KT 5SM BR OVC004
     FM021500 02009KT P6SM FEW005 SCT012=



000
FTUS43 KLOT 011949 AAA
TAFDPA
TAF AMD
KDPA 011949Z 0120/0218 05012KT P6SM OVC010
     FM012300 03012G16KT 4SM -SHRA BR OVC010
      TEMPO 0200/0203 3SM RA BR OVC006
     FM020500 03011KT 5SM BR OVC004
     FM021500 02009KT P6SM FEW005 SCT012=



000
FTUS43 KLOT 011949 AAB
TAFMDW
TAF AMD
KMDW 011949Z 0120/0218 04012KT P6SM OVC010
     FM012300 03012G16KT 5SM -SHRA BR OVC010
      TEMPO 0200/0203 3SM RA BR OVC005
     FM020500 03011KT 5SM BR OVC003
     FM021500 02009KT P6SM FEW005 SCT012=



000
FTUS43 KLOT 011915 AAA
TAFMDW
TAF AMD
KMDW 011915Z 0119/0218 04012KT P6SM OVC008
     FM012200 03012G16KT 5SM -SHRA BR OVC010
      TEMPO 0200/0203 3SM RA BR OVC005
     FM020500 03011KT 5SM BR OVC003
     FM021500 02009KT P6SM FEW005 SCT012=



000
FTUS43 KLOT 011914 AAA
TAFORD
TAF AMD
KORD 011914Z 0119/0224 05012KT P6SM OVC008
     FM012200 03012G16KT 5SM -SHRA BR OVC010
      TEMPO 0200/0203 3SM RA BR OVC005
     FM020300 03011KT 5SM BR OVC003
     FM021500 02011KT P6SM FEW005 SCT012=



000
FTUS43 KLOT 011732
TAFORD
TAF
KORD 011732Z 0118/0224 05012KT 6SM BR OVC006
     FM012000 05012KT 5SM BR VCSH OVC008
     FM012200 03012G16KT 4SM -SHRA BR OVC010
      TEMPO 0123/0203 3SM RA BR OVC005
     FM020500 03011KT 5SM BR OVC003
     FM021500 02011KT P6SM FEW005 SCT012=



000
FTUS43 KLOT 011732
TAFRFD
TAF
KRFD 011732Z 0118/0218 05013KT P6SM VCSH OVC010
     FM012100 04012G18KT 5SM -SHRA OVC012
      TEMPO 0123/0203 3SM RA BR OVC008
     FM020400 03012KT 5SM BR OVC006
     FM021500 03010KT P6SM FEW005 SCT012=



000
FTUS43 KLOT 011732
TAFMDW
TAF
KMDW 011732Z 0118/0218 02011KT 6SM BR OVC006
     FM012000 05012KT 5SM BR VCSH OVC008
     FM012200 03012G16KT 4SM -SHRA BR OVC010
      TEMPO 0123/0203 3SM RA BR OVC005
     FM020500 03011KT 5SM BR OVC003
     FM021500 02009KT P6SM FEW005 SCT012=



000
FTUS43 KLOT 011732
TAFGYY
TAF
KGYY 011732Z 0118/0218 03010KT 4SM BR OVC003
     FM012000 03011KT 5SM BR VCSH OVC008
     FM012200 03011G16KT 4SM -SHRA BR OVC010
      TEMPO 0123/0203 3SM RA BR OVC005
     FM020500 03011KT 5SM BR OVC003
     FM021500 02009KT P6SM FEW005 SCT012=



000
FTUS43 KLOT 011732
TAFDPA
TAF
KDPA 011732Z 0118/0218 05011KT 5SM BR OVC004
     FM012000 05012KT 5SM BR VCSH OVC008
     FM012200 03012G16KT 4SM -SHRA BR OVC010
      TEMPO 0123/0203 3SM RA BR OVC006
     FM020500 03011KT 5SM BR OVC004
     FM021500 02009KT P6SM FEW005 SCT012=



000
FTUS43 KLOT 011501 AAA
TAFORD
TAF AMD
KORD 011501Z 0115/0218 03012KT 1SM -DZ BR OVC003
      TEMPO 0115/0118 3/4SM BR
     FM011800 04012KT 3SM BR OVC005
     FM012000 05012KT 5SM BR OVC008
     FM012200 04012G16KT 4SM -SHRA BR OVC010
      TEMPO 0123/0203 3SM RA BR OVC006
     FM020500 04011KT 5SM BR OVC005
     FM021000 02011KT P6SM FEW005 SCT012=



000
FTUS43 KLOT 011501 AAB
TAFGYY
TAF AMD
KGYY 011501Z 0115/0212 02010KT 1SM -DZ BR OVC003
      TEMPO 0115/0118 1/2SM FG VV001
     FM011800 04010KT 3SM BR OVC005
     FM012000 03011KT 5SM BR OVC008
     FM012200 03011G16KT 4SM -SHRA BR OVC010
      TEMPO 0123/0203 3SM RA BR OVC006
     FM020500 03011KT 5SM BR OVC005
     FM021000 02009KT P6SM FEW005 SCT012=



000
FTUS43 KLOT 011501 AAA
TAFMDW
TAF AMD
KMDW 011501Z 0115/0212 03012KT 2SM -DZ BR OVC003
      TEMPO 0115/0118 1SM BR
     FM011800 04012KT 3SM BR OVC005
     FM012000 05012KT 5SM BR OVC008
     FM012200 04012G16KT 4SM -SHRA BR OVC010
      TEMPO 0123/0203 3SM RA BR OVC006
     FM020500 03011KT 5SM BR OVC005
     FM021000 02009KT P6SM FEW005 SCT012=



000
FTUS43 KLOT 011501 AAA
TAFRFD
TAF AMD
KRFD 011501Z 0115/0212 04011KT 6SM BR OVC008
     FM011800 06012KT 5SM BR VCSH OVC009
     FM012100 06012G18KT 5SM -SHRA OVC012
      TEMPO 0123/0203 3SM RA BR OVC006
     FM020400 04012KT 5SM BR OVC005
     FM021000 03010KT P6SM FEW005 SCT012=



000
FTUS43 KLOT 011501 AAA
TAFDPA
TAF AMD
KDPA 011501Z 0115/0212 03011KT 2SM -DZ BR OVC004
      TEMPO 0115/0118 1SM BR OVC003
     FM011800 04012KT 3SM BR OVC005
     FM012000 05012KT 5SM BR OVC008
     FM012200 04012G16KT 4SM -SHRA BR OVC010
      TEMPO 0123/0203 3SM RA BR OVC006
     FM020500 03011KT 5SM BR OVC005
     FM021000 02009KT P6SM FEW005 SCT012=



000
FTUS43 KLOT 011154 AAA
TAFGYY
TAF AMD
KGYY 011154Z 0112/0212 02010KT 3SM -DZ BR OVC003
      TEMPO 0112/0114 1SM BR
     FM011400 04010KT 3SM BR OVC005
     FM011700 03011KT 5SM BR OVC008
     FM012100 03011G16KT 4SM -SHRA BR OVC010
      TEMPO 0123/0203 3SM RA BR OVC006
     FM020500 03011KT 5SM BR OVC005
     FM021000 02009KT P6SM FEW005 SCT012=



000
FTUS43 KLOT 011154 AAA
TAFGYY
TAF AMD
KGYY 011154Z 0112/0212 02010KT 3SM -DZ BR OVC003
      TEMPO 0112/0114 1SM BR
     FM011400 04010KT 3SM BR OVC005
     FM011700 03011KT 5SM BR OVC008
     FM012100 03011G16KT 4SM -SHRA BR OVC010
      TEMPO 0123/0203 3SM RA BR OVC006
     FM020500 03011KT 5SM BR OVC005
     FM021000 02009KT P6SM FEW005 SCT012=



000
FTUS43 KLOT 011120
TAFMDW
TAF
KMDW 011120Z 0112/0212 03012KT 2SM -DZ BR OVC003
      TEMPO 0112/0114 1SM BR
     FM011400 04012KT 3SM BR OVC005
     FM011700 05012KT 5SM BR OVC008
     FM012100 04012G16KT 4SM -SHRA BR OVC010
      TEMPO 0123/0203 3SM RA BR OVC006
     FM020500 03011KT 5SM BR OVC005
     FM021000 02009KT P6SM FEW005 SCT012=



000
FTUS43 KLOT 011120
TAFDPA
TAF
KDPA 011120Z 0112/0212 03011KT 2SM -DZ BR OVC003
      TEMPO 0112/0114 1SM BR VV002
     FM011400 04012KT 3SM BR OVC005
     FM011700 05012KT 5SM BR OVC008
     FM012100 04012G16KT 4SM -SHRA BR OVC010
      TEMPO 0123/0203 3SM RA BR OVC006
     FM020500 03011KT 5SM BR OVC005
     FM021000 02009KT P6SM FEW005 SCT012=



000
FTUS43 KLOT 011120
TAFGYY
TAF
KGYY 011120Z 0112/0212 02010KT 3SM -DZ BR OVC003
     FM011400 04010KT 3SM BR OVC005
     FM011700 03011KT 5SM BR OVC008
     FM012100 03011G16KT 4SM -SHRA BR OVC010
      TEMPO 0123/0203 3SM RA BR OVC006
     FM020500 03011KT 5SM BR OVC005
     FM021000 02009KT P6SM FEW005 SCT012=



000
FTUS43 KLOT 011120
TAFORD
TAF
KORD 011120Z 0112/0218 03012KT 2SM -DZ BR OVC003
      TEMPO 0112/0114 3/4SM BR OVC002
     FM011500 04012KT 3SM BR OVC005
     FM011700 05012KT 5SM BR OVC008
     FM012100 04012G16KT 4SM -SHRA BR OVC010
      TEMPO 0123/0203 3SM RA BR OVC006
     FM020500 04011KT 5SM BR OVC005
     FM021000 02011KT P6SM FEW005 SCT012=



000
FTUS43 KLOT 011120
TAFRFD
TAF
KRFD 011120Z 0112/0212 04011KT 6SM BR OVC005
     FM011600 06012KT 5SM BR VCSH OVC009
     FM012100 06012G18KT 5SM -SHRA OVC012
      TEMPO 0123/0203 3SM RA BR OVC006
     FM020400 04012KT 5SM BR OVC005
     FM021000 03010KT P6SM FEW005 SCT012=



000
FTUS43 KLOT 011120
TAFMDW
TAF
KMDW 011120Z 0112/0212 03012KT 2SM -DZ BR OVC003
      TEMPO 0112/0114 1SM BR
     FM011400 04012KT 3SM BR OVC005
     FM011700 05012KT 5SM BR OVC008
     FM012100 04012G16KT 4SM -SHRA BR OVC010
      TEMPO 0123/0203 3SM RA BR OVC006
     FM020500 03011KT 5SM BR OVC005
     FM021000 02009KT P6SM FEW005 SCT012=



000
FTUS43 KLOT 011120
TAFDPA
TAF
KDPA 011120Z 0112/0212 03011KT 2SM -DZ BR OVC003
      TEMPO 0112/0114 1SM BR VV002
     FM011400 04012KT 3SM BR OVC005
     FM011700 05012KT 5SM BR OVC008
     FM012100 04012G16KT 4SM -SHRA BR OVC010
      TEMPO 0123/0203 3SM RA BR OVC006
     FM020500 03011KT 5SM BR OVC005
     FM021000 02009KT P6SM FEW005 SCT012=



000
FTUS43 KLOT 011120
TAFRFD
TAF
KRFD 011120Z 0112/0212 04011KT 6SM BR OVC005
     FM011600 06012KT 5SM BR VCSH OVC009
     FM012100 06012G18KT 5SM -SHRA OVC012
      TEMPO 0123/0203 3SM RA BR OVC006
     FM020400 04012KT 5SM BR OVC005
     FM021000 03010KT P6SM FEW005 SCT012=



000
FTUS43 KLOT 011120
TAFGYY
TAF
KGYY 011120Z 0112/0212 02010KT 3SM -DZ BR OVC003
     FM011400 04010KT 3SM BR OVC005
     FM011700 03011KT 5SM BR OVC008
     FM012100 03011G16KT 4SM -SHRA BR OVC010
      TEMPO 0123/0203 3SM RA BR OVC006
     FM020500 03011KT 5SM BR OVC005
     FM021000 02009KT P6SM FEW005 SCT012=



000
FTUS43 KLOT 011120
TAFORD
TAF
KORD 011120Z 0112/0218 03012KT 2SM -DZ BR OVC003
      TEMPO 0112/0114 3/4SM BR OVC002
     FM011500 04012KT 3SM BR OVC005
     FM011700 05012KT 5SM BR OVC008
     FM012100 04012G16KT 4SM -SHRA BR OVC010
      TEMPO 0123/0203 3SM RA BR OVC006
     FM020500 04011KT 5SM BR OVC005
     FM021000 02011KT P6SM FEW005 SCT012=



000
FTUS43 KLOT 010854 AAB
TAFRFD
TAF AMD
KRFD 010854Z 0109/0206 04010KT 5SM -DZ BR OVC006
     FM011200 04011KT 4SM BR OVC004
     FM011600 06012KT 5SM BR VCSH OVC008
     FM012100 06012G18KT 5SM -SHRA OVC012
      TEMPO 0123/0203 2SM RA BR OVC006=



000
FTUS43 KLOT 010854 AAA
TAFORD
TAF AMD
KORD 010854Z 0109/0212 04012KT 3SM -DZ BR OVC003
     FM011400 04010KT 4SM BR OVC005
     FM011700 03011KT 5SM BR VCSH OVC008
     FM012200 03010G16KT 5SM -SHRA BR OVC010
      TEMPO 0200/0204 2SM RA BR OVC006
     FM020600 05011KT 6SM BR OVC005=



000
FTUS43 KLOT 010854 AAB
TAFDPA
TAF AMD
KDPA 010854Z 0109/0206 04011KT 3SM -DZ BR OVC003
     FM011400 04010KT 4SM BR OVC005
     FM011700 03011KT 4SM BR VCSH OVC007
     FM012200 03010G16KT 5SM -SHRA BR OVC010
      TEMPO 0200/0204 2SM RA BR OVC006=



000
FTUS43 KLOT 010854 AAA
TAFGYY
TAF AMD
KGYY 010854Z 0109/0206 03009KT 3SM -DZ BR OVC003
     FM011400 04010KT 4SM BR OVC005
     FM011700 03011KT 5SM BR VCSH OVC008
     FM012200 03010G16KT 5SM -SHRA BR OVC010
      TEMPO 0200/0204 2SM RA BR OVC006=



000
FTUS43 KLOT 010854 AAA
TAFMDW
TAF AMD
KMDW 010854Z 0109/0206 04011KT 3SM -DZ BR OVC003
     FM011400 04010KT 4SM BR OVC005
     FM011700 03011KT 5SM BR VCSH OVC008
     FM012200 03010G16KT 5SM -SHRA BR OVC010
      TEMPO 0200/0204 2SM RA BR OVC006=



000
FTUS43 KLOT 010808 AAA
TAFDPA
TAF AMD
KDPA 010808Z 0108/0206 04011KT 3SM -DZ BR OVC003
     FM011400 04010KT 3SM BR OVC005
     FM011700 03011KT 4SM BR VCSH OVC007
     FM012200 03010G16KT 5SM -SHRA BR OVC010
      TEMPO 0200/0204 2SM RA BR OVC006=



000
FTUS43 KLOT 010807 AAA
TAFRFD
TAF AMD
KRFD 010807Z 0108/0206 05009KT 5SM -DZ BR OVC006
     FM011000 04011KT 4SM BR OVC004
     FM011600 06012KT 4SM BR VCSH OVC008
     FM012100 06012G18KT 5SM -SHRA OVC012
      TEMPO 0123/0203 2SM RA BR OVC006=



000
FTUS43 KLOT 010530
TAFORD
TAF
KORD 010530Z 0106/0212 04011KT 3SM -DZ BR OVC003
     FM011400 04010KT 4SM BR OVC005
     FM011700 03011KT 5SM BR VCSH OVC008
     FM012200 03010G16KT 5SM -SHRA BR OVC010
      TEMPO 0200/0204 2SM RA BR OVC006
     FM020600 05011KT 6SM BR OVC005=



000
FTUS43 KLOT 010530
TAFGYY
TAF
KGYY 010530Z 0106/0206 05011KT 2SM -DZ BR OVC003
     FM011400 04010KT 4SM BR OVC005
     FM011700 03011KT 5SM BR VCSH OVC008
     FM012200 03010G16KT 5SM -SHRA BR OVC010
      TEMPO 0200/0204 2SM RA BR OVC006=



000
FTUS43 KLOT 010530
TAFMDW
TAF
KMDW 010530Z 0106/0206 04011KT 3SM -DZ BR OVC003
     FM011400 04010KT 4SM BR OVC005
     FM011700 03011KT 5SM BR VCSH OVC008
     FM012200 03010G16KT 5SM -SHRA BR OVC010
      TEMPO 0200/0204 2SM RA BR OVC006=



000
FTUS43 KLOT 010530
TAFDPA
TAF
KDPA 010530Z 0106/0206 04011KT 2SM -DZ BR OVC003
     FM011400 04010KT 3SM BR OVC005
     FM011700 03011KT 4SM BR VCSH OVC007
     FM012200 03010G16KT 5SM -SHRA BR OVC010
      TEMPO 0200/0204 2SM RA BR OVC006=



000
FTUS43 KLOT 010530
TAFRFD
TAF
KRFD 010530Z 0106/0206 06012KT 5SM -RADZ BR OVC006
     FM010800 04011KT 4SM BR OVC004
     FM011600 06012KT 4SM BR VCSH OVC008
     FM012100 06012G18KT 5SM -SHRA OVC012
      TEMPO 0123/0203 2SM RA BR OVC006=



000
FTUS43 KLOT 010255 AAA
TAFORD
TAF AMD
KORD 010255Z 0103/0206 05013KT 2SM -DZRA BR OVC005
     FM010600 04011KT 3SM -DZ BR OVC003
     FM011400 04010KT 4SM BR OVC005
     FM011700 03010KT 5SM BR VCSH OVC008
     FM012200 02010G16KT 5SM -SHRA OVC010=



000
FTUS43 KLOT 010255 AAA
TAFMDW
TAF AMD
KMDW 010255Z 0103/0124 06013KT 2SM -DZRA BR OVC005
     FM010600 04012KT 3SM -DZ BR OVC003
     FM011400 04010KT 5SM BR OVC005
     FM011700 03010KT 4SM BR VCSH OVC008
     FM012200 02010G16KT 5SM -SHRA OVC010=



000
FTUS43 KLOT 010255 AAA
TAFGYY
TAF AMD
KGYY 010255Z 0103/0124 06010KT 2SM -DZRA BR OVC005
     FM010600 04012KT 3SM -DZ BR OVC003
     FM011700 03010KT 5SM BR VCSH OVC008
     FM012200 02010G16KT 5SM -SHRA OVC010=



000
FTUS43 KLOT 010255 AAA
TAFRFD
TAF AMD
KRFD 010255Z 0103/0124 07012G18KT 4SM -RA BR OVC009
     FM010400 05012KT 3SM -RADZ BR OVC007
     FM010800 04011KT 4SM BR OVC005
     FM011500 04010KT 4SM BR VCSH OVC008
     FM012100 04012G18KT 5SM -SHRA OVC012=



000
FTUS43 KLOT 010255 AAA
TAFDPA
TAF AMD
KDPA 010255Z 0103/0124 07012KT 3SM -DZRA BR OVC006
     FM010600 04011KT 2SM -DZ BR OVC004
     FM011700 03010KT 4SM BR VCSH OVC007
     FM012200 02010G16KT 5SM -SHRA OVC010=



000
FTUS43 KLOT 302335
TAFORD
TAF
KORD 302335Z 0100/0206 06014G23KT 3SM -DZRA BR OVC006
     FM010500 04011KT 3SM BR OVC003
     FM011400 03010KT 4SM BR OVC005
     FM011700 03010KT 5SM BR VCSH OVC008
     FM012200 02010G16KT 5SM -SHRA OVC010=



000
FTUS43 KLOT 302335
TAFDPA
TAF
KDPA 302335Z 0100/0124 07015G23KT 3SM -DZRA BR OVC007
     FM010500 04012KT 2SM -DZ BR OVC004
     FM011700 03010KT 4SM BR VCSH OVC007
     FM012200 02010G16KT 5SM -SHRA OVC010=



000
FTUS43 KLOT 302335
TAFGYY
TAF
KGYY 302335Z 0100/0124 06015G22KT 2SM -RADZ BR OVC005
     FM010600 04012KT 3SM -DZ BR OVC003
     FM011700 03010KT 5SM BR VCSH OVC008
     FM012200 02010G16KT 5SM -SHRA OVC010=



000
FTUS43 KLOT 302335
TAFMDW
TAF
KMDW 302335Z 0100/0124 06014G22KT 2SM -DZRA BR OVC006
     FM010500 04012KT 3SM BR OVC003
     FM011400 03010KT 5SM BR OVC005
     FM011700 03010KT 4SM BR VCSH OVC008
     FM012200 02010G16KT 5SM -SHRA OVC010=



000
FTUS43 KLOT 302335
TAFRFD
TAF
KRFD 302335Z 0100/0124 07016G23KT 4SM -RA BR OVC010
     FM010200 05013KT 3SM -RADZ BR OVC007
     FM010600 04012KT 4SM BR OVC005
     FM011500 04010KT 4SM BR VCSH OVC008
     FM012100 04012G18KT 5SM -SHRA OVC012=



000
FTUS43 KLOT 302106 AAB
TAFORD
TAF AMD
KORD 302106Z 3021/0124 07013G19KT 3SM RA BR OVC006
     FM010000 05012KT 2SM -RADZ BR OVC005
     FM010600 04012KT 2SM -DZ BR OVC003
     FM011100 03010KT 4SM BR VCSH OVC007
     FM012000 01010G16KT P6SM VCSH BKN010 OVC018=



000
FTUS43 KLOT 302106 AAB
TAFMDW
TAF AMD
KMDW 302106Z 3021/0118 07013G19KT 2SM RA BR OVC006
     FM010000 05012KT 2SM -RADZ BR OVC005
     FM010600 04012KT 2SM -DZ BR OVC003
     FM011100 03010KT 4SM BR VCSH OVC007=



000
FTUS43 KLOT 302106 AAB
TAFDPA
TAF AMD
KDPA 302106Z 3021/0118 07013G19KT 2SM RA BR OVC006
     FM010000 05012KT 2SM -RADZ BR OVC005
     FM010600 04012KT 2SM -DZ BR OVC003
     FM011100 03010KT 4SM BR VCSH OVC007=



000
FTUS43 KLOT 302106 AAB
TAFRFD
TAF AMD
KRFD 302106Z 3021/0118 07017G25KT 3SM -RA BR OVC010
     FM302300 07016G23KT 4SM -RA BR OVC009
     FM010200 05013KT 2SM -RADZ BR OVC005
     FM010600 04012KT 2SM -DZ BR OVC003
     FM011100 03010KT 4SM BR VCSH OVC007=



000
FTUS43 KLOT 302106 AAB
TAFGYY
TAF AMD
KGYY 302106Z 3021/0118 07012G18KT 3SM BR OVC009
     FM010000 05012KT 2SM -RADZ BR OVC005
     FM010600 04012KT 2SM -DZ BR OVC003
     FM011100 03010KT 4SM BR VCSH OVC007=



000
FTUS43 KLOT 301949 AAA
TAFGYY
TAF AMD
KGYY 301949Z 3020/0118 07012G19KT 4SM -RA BR OVC010
     FM302300 07012G18KT 4SM -RA BR OVC009
     FM010100 05012KT 2SM -RADZ BR OVC005
     FM010600 04012KT 2SM -DZ BR OVC003
     FM011100 03010KT 4SM BR VCSH OVC007=



000
FTUS43 KLOT 301949 AAA
TAFRFD
TAF AMD
KRFD 301949Z 3020/0118 07012G19KT 4SM -RA BR OVC010
     FM302300 07012G18KT 4SM -RA BR OVC009
     FM010200 05012KT 2SM -RADZ BR OVC005
     FM010600 04012KT 2SM -DZ BR OVC003
     FM011100 03010KT 4SM BR VCSH OVC007=



000
FTUS43 KLOT 301949 AAA
TAFDPA
TAF AMD
KDPA 301949Z 3020/0118 07012G19KT 4SM -RA BR OVC010
     FM302300 07012G18KT 4SM -RA BR OVC009
     FM010100 05012KT 2SM -RADZ BR OVC005
     FM010600 04012KT 2SM -DZ BR OVC003
     FM011100 03010KT 4SM BR VCSH OVC007=



000
FTUS43 KLOT 301949 AAA
TAFMDW
TAF AMD
KMDW 301949Z 3020/0118 07012G19KT 4SM -RA BR OVC010
     FM302300 07012G18KT 4SM -RA BR OVC008
     FM010100 05012KT 2SM -RADZ BR OVC005
     FM010600 04012KT 2SM -DZ BR OVC003
     FM011100 03010KT 4SM BR VCSH OVC007=



000
FTUS43 KLOT 301949 AAA
TAFORD
TAF AMD
KORD 301949Z 3020/0124 07012G19KT 4SM -RA BR OVC010
     FM302300 07012G18KT 4SM -RA BR OVC008
     FM010200 05012KT 2SM -RADZ BR OVC005
     FM010600 04012KT 2SM -DZ BR OVC003
     FM011100 03010KT 4SM BR VCSH OVC007
     FM012000 01010G16KT P6SM VCSH BKN010 OVC018=



000
FTUS43 KLOT 301734
TAFGYY
TAF
KGYY 301734Z 3018/0118 08014G22KT P6SM -SHRA OVC025
     FM302000 07013G22KT 4SM -RA BR OVC015
     FM010100 05012KT 2SM -RADZ BR OVC005
     FM010600 04012KT 2SM -DZ BR OVC003
     FM011100 03010KT 4SM BR VCSH OVC007=



000
FTUS43 KLOT 301734
TAFMDW
TAF
KMDW 301734Z 3018/0118 08014G22KT P6SM -SHRA OVC025
     FM302000 07013G22KT 4SM -RA BR OVC015
     FM010100 05012KT 2SM -RADZ BR OVC005
     FM010600 04012KT 2SM -DZ BR OVC003
     FM011100 03010KT 4SM BR VCSH OVC007=



000
FTUS43 KLOT 301734
TAFDPA
TAF
KDPA 301734Z 3018/0118 08014G22KT P6SM -SHRA OVC025
     FM302000 07013G22KT 4SM -RA BR OVC015
     FM010100 05012KT 2SM -RADZ BR OVC005
     FM010600 04012KT 2SM -DZ BR OVC003
     FM011100 03010KT 4SM BR VCSH OVC007=



000
FTUS43 KLOT 301734
TAFRFD
TAF
KRFD 301734Z 3018/0118 08014G22KT 6SM -SHRA BR OVC025
     FM302100 07013G22KT 4SM -RA BR OVC015
     FM010200 05012KT 2SM -RADZ BR OVC005
     FM010600 04012KT 2SM -DZ BR OVC003
     FM011100 03010KT 4SM BR VCSH OVC007=



000
FTUS43 KLOT 301734
TAFORD
TAF
KORD 301734Z 3018/0124 08014G22KT P6SM -SHRA OVC025
     FM302000 07013G22KT 4SM -RA BR OVC015
     FM010200 05012KT 2SM -RADZ BR OVC005
     FM010600 04012KT 2SM -DZ BR OVC003
     FM011100 03010KT 4SM BR VCSH OVC007
     FM012000 01010G16KT P6SM VCSH BKN010 OVC018=



000
FTUS43 KLOT 301503 AAA
TAFGYY
TAF AMD
KGYY 301503Z 3015/0112 08014G22KT P6SM -SHRA BKN020 OVC070
     FM301800 07017G25KT 4SM RA BR OVC008
     FM010200 05012KT 2SM -RADZ BR OVC005=



000
FTUS43 KLOT 301503 AAA
TAFMDW
TAF AMD
KMDW 301503Z 3015/0112 08014G22KT P6SM -SHRA BKN030 OVC070
     FM301900 07017G25KT 4SM RA BR OVC008
     FM010200 05012KT 2SM -RADZ BR OVC005=



000
FTUS43 KLOT 301503 AAA
TAFORD
TAF AMD
KORD 301503Z 3015/0118 08014G22KT P6SM -SHRA BKN030 OVC070
     FM301900 07017G25KT 4SM RA BR OVC008
     FM010200 05012KT 2SM -RADZ BR OVC005
     FM011100 03010KT 4SM BR VCSH OVC007=



000
FTUS43 KLOT 301503 AAA
TAFMDW
TAF AMD
KMDW 301503Z 3015/0112 08014G22KT P6SM -SHRA BKN030 OVC070
     FM301900 07017G25KT 4SM RA BR OVC008
     FM010200 05012KT 2SM -RADZ BR OVC005=



000
FTUS43 KLOT 301503 AAA
TAFGYY
TAF AMD
KGYY 301503Z 3015/0112 08014G22KT P6SM -SHRA BKN020 OVC070
     FM301800 07017G25KT 4SM RA BR OVC008
     FM010200 05012KT 2SM -RADZ BR OVC005=



000
FTUS43 KLOT 301503 AAA
TAFRFD
TAF AMD
KRFD 301503Z 3015/0112 08014G22KT P6SM -SHRA BKN030 OVC070
     FM301900 07016G28KT 4SM RA BR OVC008
     FM010100 05013KT 2SM -RADZ BR OVC005=



000
FTUS43 KLOT 301503 AAA
TAFDPA
TAF AMD
KDPA 301503Z 3015/0112 08014G22KT P6SM -SHRA BKN030 OVC070
     FM301900 07017G25KT 4SM RA BR OVC008
     FM010200 05012KT 2SM -RADZ BR OVC005=



000
FTUS43 KLOT 301503 AAA
TAFORD
TAF AMD
KORD 301503Z 3015/0118 08014G22KT P6SM -SHRA BKN030 OVC070
     FM301900 07017G25KT 4SM RA BR OVC008
     FM010200 05012KT 2SM -RADZ BR OVC005
     FM011100 03010KT 4SM BR VCSH OVC007=



000
FTUS43 KLOT 301503 AAA
TAFDPA
TAF AMD
KDPA 301503Z 3015/0112 08014G22KT P6SM -SHRA BKN030 OVC070
     FM301900 07017G25KT 4SM RA BR OVC008
     FM010200 05012KT 2SM -RADZ BR OVC005=



000
FTUS43 KLOT 301503 AAA
TAFRFD
TAF AMD
KRFD 301503Z 3015/0112 08014G22KT P6SM -SHRA BKN030 OVC070
     FM301900 07016G28KT 4SM RA BR OVC008
     FM010100 05013KT 2SM -RADZ BR OVC005=



000
FTUS43 KLOT 301120
TAFDPA
TAF
KDPA 301120Z 3012/0112 09012G17KT P6SM VCSH SCT030 OVC100
     FM301500 08016G25KT P6SM -SHRA BKN015 OVC080
     FM301900 07017G25KT 4SM RA BR OVC008
     FM010200 05012KT 2SM -RADZ BR OVC005=



000
FTUS43 KLOT 301120
TAFMDW
TAF
KMDW 301120Z 3012/0112 09012G17KT P6SM VCSH SCT035 OVC100
     FM301500 08016G25KT P6SM -SHRA BKN015 OVC080
     FM301900 07017G25KT 4SM RA BR OVC008
     FM010200 05012KT 2SM -RADZ BR OVC005=



000
FTUS43 KLOT 301120
TAFDPA
TAF
KDPA 301120Z 3012/0112 09012G17KT P6SM VCSH SCT030 OVC100
     FM301500 08016G25KT P6SM -SHRA BKN015 OVC080
     FM301900 07017G25KT 4SM RA BR OVC008
     FM010200 05012KT 2SM -RADZ BR OVC005=



000
FTUS43 KLOT 301120
TAFRFD
TAF
KRFD 301120Z 3012/0112 08012G19KT P6SM VCSH BKN030 OVC100
     FM301600 08016G26KT P6SM -SHRA BKN015 OVC080
     FM301900 07016G28KT 4SM RA BR OVC008
     FM010100 05013KT 2SM -RADZ BR OVC005=



000
FTUS43 KLOT 301120
TAFORD
TAF
KORD 301120Z 3012/0118 09012G17KT P6SM VCSH SCT035 OVC100
     FM301500 08016G25KT P6SM -SHRA BKN015 OVC080
     FM301900 07017G25KT 4SM RA BR OVC008
     FM010200 05012KT 2SM -RADZ BR OVC005
     FM011100 03010KT 4SM BR VCSH OVC007=



000
FTUS43 KLOT 301120
TAFMDW
TAF
KMDW 301120Z 3012/0112 09012G17KT P6SM VCSH SCT035 OVC100
     FM301500 08016G25KT P6SM -SHRA BKN015 OVC080
     FM301900 07017G25KT 4SM RA BR OVC008
     FM010200 05012KT 2SM -RADZ BR OVC005=



000
FTUS43 KLOT 301120
TAFGYY
TAF
KGYY 301120Z 3012/0112 09012G17KT P6SM VCSH OVC100
     FM301500 08016G25KT P6SM -SHRA BKN015 OVC080
     FM301800 07017G25KT 4SM RA BR OVC008
     FM010200 05012KT 2SM -RADZ BR OVC005=



000
FTUS43 KLOT 301120
TAFORD
TAF
KORD 301120Z 3012/0118 09012G17KT P6SM VCSH SCT035 OVC100
     FM301500 08016G25KT P6SM -SHRA BKN015 OVC080
     FM301900 07017G25KT 4SM RA BR OVC008
     FM010200 05012KT 2SM -RADZ BR OVC005
     FM011100 03010KT 4SM BR VCSH OVC007=



000
FTUS43 KLOT 301120
TAFGYY
TAF
KGYY 301120Z 3012/0112 09012G17KT P6SM VCSH OVC100
     FM301500 08016G25KT P6SM -SHRA BKN015 OVC080
     FM301800 07017G25KT 4SM RA BR OVC008
     FM010200 05012KT 2SM -RADZ BR OVC005=



000
FTUS43 KLOT 301120
TAFRFD
TAF
KRFD 301120Z 3012/0112 08012G19KT P6SM VCSH BKN030 OVC100
     FM301600 08016G26KT P6SM -SHRA BKN015 OVC080
     FM301900 07016G28KT 4SM RA BR OVC008
     FM010100 05013KT 2SM -RADZ BR OVC005=



000
FTUS43 KLOT 300858 AAA
TAFRFD
TAF AMD
KRFD 300858Z 3009/0106 07009KT P6SM BKN025 OVC150
     FM301200 08014G19KT P6SM VCSH SCT030 OVC100
     FM301600 08017G25KT P6SM -SHRA SCT015 OVC080
     FM301900 07016G25KT 4SM RA BR OVC009
     FM302300 05014G21KT 3SM RA BR OVC007=



000
FTUS43 KLOT 300858 AAA
TAFMDW
TAF AMD
KMDW 300858Z 3009/0106 06008KT P6SM FEW035 OVC150
     FM301100 09012G18KT P6SM VCSH SCT035 OVC100
     FM301500 08014G22KT P6SM -SHRA SCT015 OVC080
     FM301900 07015G25KT 4SM RA BR OVC010
     FM010000 05014G22KT 3SM RA BR OVC007=



000
FTUS43 KLOT 300858 AAB
TAFGYY
TAF AMD
KGYY 300858Z 3009/0106 05009KT P6SM FEW035 OVC150
     FM301100 08012G18KT P6SM VCSH SCT025 OVC100
     FM301500 08014G22KT P6SM -SHRA SCT015 OVC080
     FM301900 07015G25KT 4SM RA BR OVC010
     FM010000 05014G22KT 3SM RA BR OVC007=



000
FTUS43 KLOT 300858 AAA
TAFDPA
TAF AMD
KDPA 300858Z 3009/0106 06008KT P6SM SCT035 OVC150
     FM301100 09012G18KT P6SM VCSH SCT035 OVC100
     FM301500 08014G22KT P6SM -SHRA SCT015 OVC080
     FM301900 07015G25KT 4SM RA BR OVC010
     FM010000 05014G22KT 3SM RA BR OVC007=



000
FTUS43 KLOT 300858 AAB
TAFORD
TAF AMD
KORD 300858Z 3009/0112 05008KT P6SM FEW035 OVC150
     FM301100 09012G18KT P6SM VCSH SCT035 OVC100
     FM301500 08014G22KT P6SM -SHRA SCT015 OVC080
     FM301900 07015G25KT 4SM RA BR OVC010
     FM010000 05014G22KT 3SM RA BR OVC007
     FM010500 02012G20KT 2SM -RADZ BR OVC005=



000
FTUS43 KLOT 300707 AAA
TAFORD
TAF AMD
KORD 300707Z 3007/0112 05008KT P6SM OVC035
     FM301200 09012G18KT P6SM SCT025 OVC100
     FM301600 08014G22KT P6SM -SHRA SCT015 OVC080
     FM301900 07015G25KT 4SM RA BR OVC010
     FM010000 05014G22KT 3SM RA BR OVC007
     FM010500 02012G20KT 2SM -RADZ BR OVC005=



000
FTUS43 KLOT 300707 AAA
TAFGYY
TAF AMD
KGYY 300707Z 3007/0106 04007KT P6SM SCT035 BKN250
     FM301100 08012G18KT P6SM SCT025 OVC100
     FM301600 08014G22KT P6SM -SHRA SCT015 OVC080
     FM301900 07015G25KT 4SM RA BR OVC010
     FM010000 05014G22KT 3SM RA BR OVC007=



000
FTUS43 KLOT 300521
TAFRFD
TAF
KRFD 300521Z 3006/0106 07008KT P6SM SCT015 BKN025
     FM301200 08014G19KT P6SM SCT025 OVC100
     FM301600 08017G25KT P6SM -SHRA SCT015 OVC080
     FM301900 07016G25KT 4SM RA BR OVC009
     FM302300 05014G21KT 3SM RA BR OVC007=



000
FTUS43 KLOT 300521
TAFDPA
TAF
KDPA 300521Z 3006/0106 06008KT P6SM SCT015 OVC020
     FM301200 09012G18KT P6SM SCT025 OVC100
     FM301600 08014G22KT P6SM -SHRA SCT015 OVC080
     FM301900 07015G25KT 4SM RA BR OVC010
     FM010000 05014G22KT 3SM RA BR OVC007=



000
FTUS43 KLOT 300521
TAFGYY
TAF
KGYY 300521Z 3006/0106 04007KT P6SM SCT015 OVC030
     FM301100 08012G18KT P6SM SCT025 OVC100
     FM301600 08014G22KT P6SM -SHRA SCT015 OVC080
     FM301900 07015G25KT 4SM RA BR OVC010
     FM010000 05014G22KT 3SM RA BR OVC007=



000
FTUS43 KLOT 300521
TAFORD
TAF
KORD 300521Z 3006/0112 06008KT P6SM SCT015 OVC025
     FM301200 09012G18KT P6SM SCT025 OVC100
     FM301600 08014G22KT P6SM -SHRA SCT015 OVC080
     FM301900 07015G25KT 4SM RA BR OVC010
     FM010000 05014G22KT 3SM RA BR OVC007
     FM010500 02012G20KT 2SM -RADZ BR OVC005=



000
FTUS43 KLOT 300521
TAFMDW
TAF
KMDW 300521Z 3006/0106 06008KT P6SM SCT015 OVC025
     FM301200 09012G18KT P6SM SCT025 OVC100
     FM301600 08014G22KT P6SM -SHRA SCT015 OVC080
     FM301900 07015G25KT 4SM RA BR OVC010
     FM010000 05014G22KT 3SM RA BR OVC007=



    US Dept of Commerce
    National Oceanic and Atmospheric Administration
    National Weather Service
    1325 East West Highway
    Silver Spring, MD 20910
    Page Author: NWS Internet Services Team
Disclaimer
Information Quality
Credits
Glossary
Privacy Policy
Freedom of Information Act (FOIA)
About Us
Career Opportunities